sensor_id;sensor_type;location;lat;lon;timestamp;pressure;altitude;pressure_sealevel;temperature;humidity
77288;BME280;66345;42.694;23.346;2023-10-19T00:00:37;95652.03;;;6.72;89.11
77288;BME280;66345;42.694;23.346;2023-10-19T00:03:05;95654.53;;;6.65;88.70
77288;BME280;66345;42.694;23.346;2023-10-19T00:05:36;95638.31;;;6.52;89.00
77288;BME280;66345;42.694;23.346;2023-10-19T00:08:03;95641.16;;;6.66;88.93
77288;BME280;66345;42.694;23.346;2023-10-19T00:10:44;95639.53;;;6.65;88.80
77288;BME280;66345;42.694;23.346;2023-10-19T00:13:14;95642.63;;;6.61;88.84
77288;BME280;66345;42.694;23.346;2023-10-19T00:15:43;95631.81;;;6.80;88.82
77288;BME280;66345;42.694;23.346;2023-10-19T00:18:14;95628.03;;;6.91;87.42
77288;BME280;66345;42.694;23.346;2023-10-19T00:20:44;95638.56;;;6.75;88.06
77288;BME280;66345;42.694;23.346;2023-10-19T00:23:21;95629.47;;;6.69;87.95
77288;BME280;66345;42.694;23.346;2023-10-19T00:26:01;95626.16;;;6.59;88.84
77288;BME280;66345;42.694;23.346;2023-10-19T00:28:33;95627.28;;;6.64;88.20
77288;BME280;66345;42.694;23.346;2023-10-19T00:31:01;95627.09;;;6.50;88.59
77288;BME280;66345;42.694;23.346;2023-10-19T00:33:29;95613.91;;;6.50;89.07
77288;BME280;66345;42.694;23.346;2023-10-19T00:35:55;95611.31;;;6.58;88.47
77288;BME280;66345;42.694;23.346;2023-10-19T00:38:40;95620.19;;;6.57;88.73
77288;BME280;66345;42.694;23.346;2023-10-19T00:41:26;95611.63;;;6.55;88.36
77288;BME280;66345;42.694;23.346;2023-10-19T00:43:55;95616.25;;;6.53;88.58
77288;BME280;66345;42.694;23.346;2023-10-19T00:46:30;95613.06;;;6.41;88.58
77288;BME280;66345;42.694;23.346;2023-10-19T00:49:09;95607.69;;;6.59;88.54
77288;BME280;66345;42.694;23.346;2023-10-19T00:51:56;95610.00;;;6.62;87.83
77288;BME280;66345;42.694;23.346;2023-10-19T00:54:34;95606.19;;;6.64;88.18
77288;BME280;66345;42.694;23.346;2023-10-19T00:57:03;95606.06;;;6.58;87.59
77288;BME280;66345;42.694;23.346;2023-10-19T00:59:40;95612.94;;;6.43;87.85
77288;BME280;66345;42.694;23.346;2023-10-19T01:02:20;95616.69;;;6.40;88.00
77288;BME280;66345;42.694;23.346;2023-10-19T01:04:55;95602.72;;;6.56;87.73
77288;BME280;66345;42.694;23.346;2023-10-19T01:07:25;95604.91;;;6.68;86.65
77288;BME280;66345;42.694;23.346;2023-10-19T01:09:51;95600.97;;;6.73;86.19
77288;BME280;66345;42.694;23.346;2023-10-19T01:12:19;95603.69;;;6.47;86.59
77288;BME280;66345;42.694;23.346;2023-10-19T01:15:15;95616.53;;;6.50;87.09
77288;BME280;66345;42.694;23.346;2023-10-19T01:17:53;95621.44;;;6.28;88.25
77288;BME280;66345;42.694;23.346;2023-10-19T01:20:30;95611.47;;;6.06;89.15
77288;BME280;66345;42.694;23.346;2023-10-19T01:23:06;95616.25;;;6.10;89.52
77288;BME280;66345;42.694;23.346;2023-10-19T01:28:08;95616.56;;;6.07;89.53
77288;BME280;66345;42.694;23.346;2023-10-19T01:30:35;95616.78;;;6.22;89.02
77288;BME280;66345;42.694;23.346;2023-10-19T01:33:03;95612.81;;;6.18;88.74
77288;BME280;66345;42.694;23.346;2023-10-19T01:35:29;95610.63;;;6.05;89.69
77288;BME280;66345;42.694;23.346;2023-10-19T01:38:15;95603.53;;;5.98;90.54
77288;BME280;66345;42.694;23.346;2023-10-19T01:40:40;95615.72;;;5.99;90.47
77288;BME280;66345;42.694;23.346;2023-10-19T01:43:12;95613.03;;;5.91;90.00
77288;BME280;66345;42.694;23.346;2023-10-19T01:45:47;95628.34;;;5.95;90.19
77288;BME280;66345;42.694;23.346;2023-10-19T01:48:13;95616.41;;;5.83;90.43
77288;BME280;66345;42.694;23.346;2023-10-19T01:50:39;95627.28;;;5.88;90.05
77288;BME280;66345;42.694;23.346;2023-10-19T01:53:05;95617.75;;;5.87;90.30
77288;BME280;66345;42.694;23.346;2023-10-19T01:55:43;95621.28;;;5.96;90.28
77288;BME280;66345;42.694;23.346;2023-10-19T01:58:09;95613.84;;;5.91;89.81
77288;BME280;66345;42.694;23.346;2023-10-19T02:00:35;95615.88;;;5.97;89.98
77288;BME280;66345;42.694;23.346;2023-10-19T02:03:11;95609.69;;;5.89;89.43
77288;BME280;66345;42.694;23.346;2023-10-19T02:05:36;95605.88;;;6.09;89.54
77288;BME280;66345;42.694;23.346;2023-10-19T02:08:06;95604.63;;;6.29;88.32
77288;BME280;66345;42.694;23.346;2023-10-19T02:10:35;95605.63;;;6.28;87.57
77288;BME280;66345;42.694;23.346;2023-10-19T02:13:08;95605.66;;;6.36;87.48
77288;BME280;66345;42.694;23.346;2023-10-19T02:15:34;95608.47;;;6.43;87.36
77288;BME280;66345;42.694;23.346;2023-10-19T02:18:03;95608.00;;;6.56;86.83
77288;BME280;66345;42.694;23.346;2023-10-19T02:20:28;95618.84;;;6.45;86.87
77288;BME280;66345;42.694;23.346;2023-10-19T02:22:55;95612.94;;;6.43;87.25
77288;BME280;66345;42.694;23.346;2023-10-19T02:25:23;95619.50;;;6.47;87.17
77288;BME280;66345;42.694;23.346;2023-10-19T02:27:50;95614.31;;;6.21;88.17
77288;BME280;66345;42.694;23.346;2023-10-19T02:30:17;95618.66;;;6.04;89.35
77288;BME280;66345;42.694;23.346;2023-10-19T02:32:43;95624.34;;;6.17;89.61
77288;BME280;66345;42.694;23.346;2023-10-19T02:35:09;95615.56;;;6.43;88.56
77288;BME280;66345;42.694;23.346;2023-10-19T02:37:34;95608.00;;;6.56;87.98
77288;BME280;66345;42.694;23.346;2023-10-19T02:40:00;95612.97;;;6.67;87.70
77288;BME280;66345;42.694;23.346;2023-10-19T02:42:25;95612.16;;;6.66;87.47
77288;BME280;66345;42.694;23.346;2023-10-19T02:44:51;95616.25;;;6.53;87.16
77288;BME280;66345;42.694;23.346;2023-10-19T02:47:16;95611.19;;;6.25;88.26
77288;BME280;66345;42.694;23.346;2023-10-19T02:49:42;95611.47;;;6.06;89.08
77288;BME280;66345;42.694;23.346;2023-10-19T02:52:09;95612.72;;;5.94;89.75
77288;BME280;66345;42.694;23.346;2023-10-19T02:54:38;95612.47;;;5.87;90.57
77288;BME280;66345;42.694;23.346;2023-10-19T02:57:05;95618.88;;;5.84;90.88
77288;BME280;66345;42.694;23.346;2023-10-19T02:59:35;95624.06;;;5.94;90.88
77288;BME280;66345;42.694;23.346;2023-10-19T03:02:01;95609.31;;;6.09;90.13
77288;BME280;66345;42.694;23.346;2023-10-19T03:04:42;95607.50;;;6.10;89.92
77288;BME280;66345;42.694;23.346;2023-10-19T03:07:09;95603.91;;;6.19;90.02
77288;BME280;66345;42.694;23.346;2023-10-19T03:09:38;95605.75;;;6.27;88.82
77288;BME280;66345;42.694;23.346;2023-10-19T03:12:14;95607.53;;;6.18;89.57
77288;BME280;66345;42.694;23.346;2023-10-19T03:14:39;95599.31;;;6.13;89.51
77288;BME280;66345;42.694;23.346;2023-10-19T03:17:07;95604.78;;;6.20;89.34
77288;BME280;66345;42.694;23.346;2023-10-19T03:19:35;95602.78;;;6.14;89.07
77288;BME280;66345;42.694;23.346;2023-10-19T03:22:01;95610.34;;;6.17;88.82
77288;BME280;66345;42.694;23.346;2023-10-19T03:24:26;95600.25;;;6.04;89.03
77288;BME280;66345;42.694;23.346;2023-10-19T03:27:05;95606.28;;;5.96;89.59
77288;BME280;66345;42.694;23.346;2023-10-19T03:29:41;95615.47;;;6.26;89.45
77288;BME280;66345;42.694;23.346;2023-10-19T03:32:11;95608.72;;;6.24;88.14
77288;BME280;66345;42.694;23.346;2023-10-19T03:34:37;95604.09;;;6.18;88.01
77288;BME280;66345;42.694;23.346;2023-10-19T03:37:03;95600.47;;;6.19;88.45
77288;BME280;66345;42.694;23.346;2023-10-19T03:39:35;95598.41;;;6.38;87.50
77288;BME280;66345;42.694;23.346;2023-10-19T03:42:04;95596.16;;;6.09;87.91
77288;BME280;66345;42.694;23.346;2023-10-19T03:44:39;95595.13;;;6.02;88.83
77288;BME280;66345;42.694;23.346;2023-10-19T03:47:16;95593.00;;;5.98;89.20
77288;BME280;66345;42.694;23.346;2023-10-19T03:49:48;95591.81;;;5.92;89.63
77288;BME280;66345;42.694;23.346;2023-10-19T03:52:16;95595.03;;;5.86;89.61
77288;BME280;66345;42.694;23.346;2023-10-19T03:54:42;95586.88;;;5.71;90.64
77288;BME280;66345;42.694;23.346;2023-10-19T03:57:10;95589.69;;;5.70;90.76
77288;BME280;66345;42.694;23.346;2023-10-19T03:59:45;95581.66;;;5.79;90.54
77288;BME280;66345;42.694;23.346;2023-10-19T04:02:11;95591.50;;;6.03;89.68
77288;BME280;66345;42.694;23.346;2023-10-19T04:04:43;95581.16;;;6.10;89.19
77288;BME280;66345;42.694;23.346;2023-10-19T04:07:13;95587.06;;;6.04;88.75
77288;BME280;66345;42.694;23.346;2023-10-19T04:09:59;95582.28;;;5.99;89.57
77288;BME280;66345;42.694;23.346;2023-10-19T04:12:39;95583.16;;;6.08;88.63
77288;BME280;66345;42.694;23.346;2023-10-19T04:15:08;95591.38;;;6.05;88.94
77288;BME280;66345;42.694;23.346;2023-10-19T04:17:47;95596.88;;;6.20;89.05
77288;BME280;66345;42.694;23.346;2023-10-19T04:20:16;95603.09;;;6.19;88.18
77288;BME280;66345;42.694;23.346;2023-10-19T04:22:42;95596.53;;;6.23;88.18
77288;BME280;66345;42.694;23.346;2023-10-19T04:25:08;95595.28;;;6.35;87.85
77288;BME280;66345;42.694;23.346;2023-10-19T04:27:40;95597.22;;;6.33;87.41
77288;BME280;66345;42.694;23.346;2023-10-19T04:30:17;95600.50;;;6.27;86.81
77288;BME280;66345;42.694;23.346;2023-10-19T04:32:52;95582.56;;;6.30;86.94
77288;BME280;66345;42.694;23.346;2023-10-19T04:35:19;95581.75;;;6.30;86.49
77288;BME280;66345;42.694;23.346;2023-10-19T04:37:51;95581.56;;;6.23;86.75
77288;BME280;66345;42.694;23.346;2023-10-19T04:40:21;95590.81;;;6.27;86.89
77288;BME280;66345;42.694;23.346;2023-10-19T04:42:54;95571.84;;;6.24;86.75
77288;BME280;66345;42.694;23.346;2023-10-19T04:45:23;95576.03;;;6.00;87.82
77288;BME280;66345;42.694;23.346;2023-10-19T04:47:52;95570.63;;;6.10;87.59
77288;BME280;66345;42.694;23.346;2023-10-19T04:50:18;95571.13;;;6.05;87.44
77288;BME280;66345;42.694;23.346;2023-10-19T04:52:44;95561.75;;;6.11;87.48
77288;BME280;66345;42.694;23.346;2023-10-19T04:55:09;95562.75;;;6.18;87.16
77288;BME280;66345;42.694;23.346;2023-10-19T04:57:34;95568.75;;;6.28;86.68
77288;BME280;66345;42.694;23.346;2023-10-19T05:00:00;95566.13;;;6.36;86.19
77288;BME280;66345;42.694;23.346;2023-10-19T05:02:25;95572.03;;;6.30;86.33
77288;BME280;66345;42.694;23.346;2023-10-19T05:04:51;95568.72;;;6.20;86.76
77288;BME280;66345;42.694;23.346;2023-10-19T05:07:16;95570.84;;;6.25;87.19
77288;BME280;66345;42.694;23.346;2023-10-19T05:09:42;95565.44;;;6.34;86.67
77288;BME280;66345;42.694;23.346;2023-10-19T05:12:08;95573.84;;;6.38;87.04
77288;BME280;66345;42.694;23.346;2023-10-19T05:14:35;95575.69;;;6.37;86.71
77288;BME280;66345;42.694;23.346;2023-10-19T05:17:04;95572.69;;;6.40;86.58
77288;BME280;66345;42.694;23.346;2023-10-19T05:19:33;95573.41;;;6.51;86.30
77288;BME280;66345;42.694;23.346;2023-10-19T05:22:00;95565.81;;;6.56;85.81
77288;BME280;66345;42.694;23.346;2023-10-19T05:24:26;95562.53;;;6.54;85.61
77288;BME280;66345;42.694;23.346;2023-10-19T05:26:53;95583.25;;;6.49;85.47
77288;BME280;66345;42.694;23.346;2023-10-19T05:29:19;95571.91;;;6.56;85.69
77288;BME280;66345;42.694;23.346;2023-10-19T05:31:45;95579.72;;;6.82;85.69
77288;BME280;66345;42.694;23.346;2023-10-19T05:34:10;95575.44;;;6.89;85.02
77288;BME280;66345;42.694;23.346;2023-10-19T05:36:36;95587.47;;;7.16;83.97
77288;BME280;66345;42.694;23.346;2023-10-19T05:39:01;95596.56;;;7.14;84.12
77288;BME280;66345;42.694;23.346;2023-10-19T05:41:29;95594.25;;;7.27;84.05
77288;BME280;66345;42.694;23.346;2023-10-19T05:43:56;95591.59;;;7.35;84.07
77288;BME280;66345;42.694;23.346;2023-10-19T05:46:22;95585.81;;;7.40;84.44
77288;BME280;66345;42.694;23.346;2023-10-19T05:48:50;95580.00;;;7.69;83.07
77288;BME280;66345;42.694;23.346;2023-10-19T05:51:16;95578.59;;;7.97;81.88
77288;BME280;66345;42.694;23.346;2023-10-19T05:53:42;95585.94;;;8.26;79.92
77288;BME280;66345;42.694;23.346;2023-10-19T05:56:09;95588.22;;;8.38;79.53
77288;BME280;66345;42.694;23.346;2023-10-19T05:58:35;95592.84;;;8.36;79.42
77288;BME280;66345;42.694;23.346;2023-10-19T06:01:01;95592.03;;;8.66;78.92
77288;BME280;66345;42.694;23.346;2023-10-19T06:03:26;95578.94;;;8.73;77.93
77288;BME280;66345;42.694;23.346;2023-10-19T06:05:52;95582.09;;;8.68;78.26
77288;BME280;66345;42.694;23.346;2023-10-19T06:08:22;95595.25;;;8.76;77.88
77288;BME280;66345;42.694;23.346;2023-10-19T06:10:51;95594.59;;;8.51;79.39
77288;BME280;66345;42.694;23.346;2023-10-19T06:13:17;95596.13;;;8.69;78.26
77288;BME280;66345;42.694;23.346;2023-10-19T06:15:42;95589.88;;;8.70;77.79
77288;BME280;66345;42.694;23.346;2023-10-19T06:18:08;95584.69;;;8.99;76.26
77288;BME280;66345;42.694;23.346;2023-10-19T06:20:34;95585.19;;;8.80;76.59
77288;BME280;66345;42.694;23.346;2023-10-19T06:22:59;95584.47;;;9.09;75.79
77288;BME280;66345;42.694;23.346;2023-10-19T06:25:35;95596.13;;;9.23;75.22
77288;BME280;66345;42.694;23.346;2023-10-19T06:28:00;95585.19;;;9.03;75.66
77288;BME280;66345;42.694;23.346;2023-10-19T06:30:27;95577.28;;;9.17;74.26
77288;BME280;66345;42.694;23.346;2023-10-19T06:32:57;95572.66;;;8.97;74.64
77288;BME280;66345;42.694;23.346;2023-10-19T06:35:27;95575.72;;;8.85;75.49
77288;BME280;66345;42.694;23.346;2023-10-19T06:37:53;95570.38;;;8.94;75.48
77288;BME280;66345;42.694;23.346;2023-10-19T06:40:20;95584.03;;;9.43;74.11
77288;BME280;66345;42.694;23.346;2023-10-19T06:42:47;95581.78;;;9.55;73.59
77288;BME280;66345;42.694;23.346;2023-10-19T06:45:14;95582.22;;;9.58;72.68
77288;BME280;66345;42.694;23.346;2023-10-19T06:47:41;95585.75;;;9.88;72.67
77288;BME280;66345;42.694;23.346;2023-10-19T06:50:08;95583.47;;;10.00;72.06
77288;BME280;66345;42.694;23.346;2023-10-19T06:52:36;95592.53;;;9.91;71.48
77288;BME280;66345;42.694;23.346;2023-10-19T06:55:03;95585.41;;;10.21;70.83
77288;BME280;66345;42.694;23.346;2023-10-19T06:57:30;95585.97;;;10.31;69.94
77288;BME280;66345;42.694;23.346;2023-10-19T06:59:56;95576.66;;;10.56;69.46
77288;BME280;66345;42.694;23.346;2023-10-19T07:02:22;95565.41;;;10.91;67.99
77288;BME280;66345;42.694;23.346;2023-10-19T07:04:47;95561.22;;;11.24;66.67
77288;BME280;66345;42.694;23.346;2023-10-19T07:07:13;95559.72;;;11.36;66.34
77288;BME280;66345;42.694;23.346;2023-10-19T07:09:39;95557.53;;;11.96;64.03
77288;BME280;66345;42.694;23.346;2023-10-19T07:12:04;95554.69;;;11.76;64.56
77288;BME280;66345;42.694;23.346;2023-10-19T07:14:32;95558.50;;;11.88;64.39
77288;BME280;66345;42.694;23.346;2023-10-19T07:16:58;95564.81;;;12.22;62.81
77288;BME280;66345;42.694;23.346;2023-10-19T07:19:24;95561.50;;;12.13;63.88
77288;BME280;66345;42.694;23.346;2023-10-19T07:21:50;95565.66;;;12.70;61.86
77288;BME280;66345;42.694;23.346;2023-10-19T07:24:23;95561.34;;;12.21;63.10
77288;BME280;66345;42.694;23.346;2023-10-19T07:26:50;95557.13;;;12.34;63.76
77288;BME280;66345;42.694;23.346;2023-10-19T07:29:33;95555.69;;;12.99;61.54
77288;BME280;66345;42.694;23.346;2023-10-19T07:32:02;95559.25;;;12.58;62.48
77288;BME280;66345;42.694;23.346;2023-10-19T07:34:31;95565.38;;;12.52;63.14
77288;BME280;66345;42.694;23.346;2023-10-19T07:36:58;95562.13;;;12.57;64.03
77288;BME280;66345;42.694;23.346;2023-10-19T07:39:25;95569.38;;;12.89;62.37
77288;BME280;66345;42.694;23.346;2023-10-19T07:41:55;95567.84;;;12.60;62.78
77288;BME280;66345;42.694;23.346;2023-10-19T07:44:21;95571.81;;;12.30;64.19
77288;BME280;66345;42.694;23.346;2023-10-19T07:46:46;95565.59;;;12.16;65.38
77288;BME280;66345;42.694;23.346;2023-10-19T07:49:11;95570.13;;;13.31;62.06
77288;BME280;66345;42.694;23.346;2023-10-19T07:51:44;95575.66;;;13.89;59.55
77288;BME280;66345;42.694;23.346;2023-10-19T07:54:11;95568.00;;;14.90;56.15
77288;BME280;66345;42.694;23.346;2023-10-19T07:56:37;95557.38;;;15.97;53.22
77288;BME280;66345;42.694;23.346;2023-10-19T07:59:02;95551.44;;;16.68;50.57
77288;BME280;66345;42.694;23.346;2023-10-19T08:01:28;95562.31;;;16.18;51.86
77288;BME280;66345;42.694;23.346;2023-10-19T08:03:54;95564.22;;;16.11;51.96
77288;BME280;66345;42.694;23.346;2023-10-19T08:06:20;95574.13;;;15.86;52.45
77288;BME280;66345;42.694;23.346;2023-10-19T08:08:45;95569.00;;;15.27;54.02
77288;BME280;66345;42.694;23.346;2023-10-19T08:11:11;95573.28;;;15.67;53.00
77288;BME280;66345;42.694;23.346;2023-10-19T08:13:38;95577.25;;;15.82;52.44
77288;BME280;66345;42.694;23.346;2023-10-19T08:16:05;95557.25;;;16.10;51.84
77288;BME280;66345;42.694;23.346;2023-10-19T08:18:32;95557.59;;;16.32;50.96
77288;BME280;66345;42.694;23.346;2023-10-19T08:21:03;95559.84;;;13.87;56.50
77288;BME280;66345;42.694;23.346;2023-10-19T08:23:28;95569.91;;;13.52;59.20
77288;BME280;66345;42.694;23.346;2023-10-19T08:25:56;95554.84;;;14.31;56.64
77288;BME280;66345;42.694;23.346;2023-10-19T08:28:21;95557.88;;;14.41;57.15
77288;BME280;66345;42.694;23.346;2023-10-19T08:30:48;95557.38;;;14.06;58.05
77288;BME280;66345;42.694;23.346;2023-10-19T08:33:23;95564.75;;;14.04;58.05
77288;BME280;66345;42.694;23.346;2023-10-19T08:35:53;95556.59;;;14.63;56.14
77288;BME280;66345;42.694;23.346;2023-10-19T08:38:20;95571.19;;;14.61;56.18
77288;BME280;66345;42.694;23.346;2023-10-19T08:40:47;95555.09;;;15.19;54.73
77288;BME280;66345;42.694;23.346;2023-10-19T08:43:13;95558.50;;;15.26;53.45
77288;BME280;66345;42.694;23.346;2023-10-19T08:45:39;95562.00;;;14.43;55.92
77288;BME280;66345;42.694;23.346;2023-10-19T08:48:05;95565.69;;;14.49;56.74
77288;BME280;66345;42.694;23.346;2023-10-19T08:50:34;95562.97;;;14.62;56.31
77288;BME280;66345;42.694;23.346;2023-10-19T08:53:01;95546.44;;;16.17;52.82
77288;BME280;66345;42.694;23.346;2023-10-19T08:55:28;95550.91;;;16.23;51.75
77288;BME280;66345;42.694;23.346;2023-10-19T08:57:53;95558.50;;;15.58;53.16
77288;BME280;66345;42.694;23.346;2023-10-19T09:00:20;95552.31;;;16.62;50.58
77288;BME280;66345;42.694;23.346;2023-10-19T09:02:51;95547.44;;;16.59;50.40
77288;BME280;66345;42.694;23.346;2023-10-19T09:05:18;95555.84;;;16.62;50.58
77288;BME280;66345;42.694;23.346;2023-10-19T09:07:52;95543.94;;;16.22;51.81
77288;BME280;66345;42.694;23.346;2023-10-19T09:10:28;95542.72;;;17.21;48.88
77288;BME280;66345;42.694;23.346;2023-10-19T09:13:06;95546.88;;;15.95;51.52
77288;BME280;66345;42.694;23.346;2023-10-19T09:15:36;95529.59;;;16.71;50.17
77288;BME280;66345;42.694;23.346;2023-10-19T09:18:17;95528.56;;;17.02;49.75
77288;BME280;66345;42.694;23.346;2023-10-19T09:20:47;95521.09;;;16.56;51.08
77288;BME280;66345;42.694;23.346;2023-10-19T09:23:22;95515.13;;;17.32;49.50
77288;BME280;66345;42.694;23.346;2023-10-19T09:25:49;95508.28;;;16.76;50.03
77288;BME280;66345;42.694;23.346;2023-10-19T09:28:15;95510.28;;;16.81;50.09
77288;BME280;66345;42.694;23.346;2023-10-19T09:30:42;95506.06;;;17.57;47.83
77288;BME280;66345;42.694;23.346;2023-10-19T09:33:09;95494.28;;;18.16;46.64
77288;BME280;66345;42.694;23.346;2023-10-19T09:35:35;95498.53;;;17.77;47.70
77288;BME280;66345;42.694;23.346;2023-10-19T09:38:03;95485.38;;;19.08;44.67
77288;BME280;66345;42.694;23.346;2023-10-19T09:40:31;95485.44;;;18.68;44.65
77288;BME280;66345;42.694;23.346;2023-10-19T09:42:58;95489.72;;;19.26;44.17
77288;BME280;66345;42.694;23.346;2023-10-19T09:45:29;95477.94;;;19.77;43.09
77288;BME280;66345;42.694;23.346;2023-10-19T09:47:56;95481.28;;;18.37;46.32
77288;BME280;66345;42.694;23.346;2023-10-19T09:50:27;95476.91;;;17.95;47.22
77288;BME280;66345;42.694;23.346;2023-10-19T09:52:52;95496.88;;;17.76;48.23
77288;BME280;66345;42.694;23.346;2023-10-19T09:55:26;95473.31;;;17.78;48.51
77288;BME280;66345;42.694;23.346;2023-10-19T09:58:06;95472.06;;;18.73;46.15
77288;BME280;66345;42.694;23.346;2023-10-19T10:00:34;95478.38;;;18.78;45.64
77288;BME280;66345;42.694;23.346;2023-10-19T10:03:00;95485.78;;;17.61;48.08
77288;BME280;66345;42.694;23.346;2023-10-19T10:10:50;95455.28;;;18.66;45.09
77288;BME280;66345;42.694;23.346;2023-10-19T10:15:53;95440.22;;;21.09;39.52
77288;BME280;66345;42.694;23.346;2023-10-19T10:18:19;95433.84;;;23.24;35.46
77288;BME280;66345;42.694;23.346;2023-10-19T10:20:45;95435.47;;;23.51;35.52
77288;BME280;66345;42.694;23.346;2023-10-19T10:23:21;95429.56;;;22.51;37.23
77288;BME280;66345;42.694;23.346;2023-10-19T10:25:47;95431.69;;;21.22;39.06
77288;BME280;66345;42.694;23.346;2023-10-19T10:28:19;95421.50;;;21.61;37.75
77288;BME280;66345;42.694;23.346;2023-10-19T10:31:07;95418.44;;;21.20;39.37
77288;BME280;66345;42.694;23.346;2023-10-19T10:33:53;95427.22;;;21.05;39.11
77288;BME280;66345;42.694;23.346;2023-10-19T10:36:20;95417.63;;;20.88;40.20
77288;BME280;66345;42.694;23.346;2023-10-19T10:38:48;95401.50;;;20.44;40.72
77288;BME280;66345;42.694;23.346;2023-10-19T10:41:24;95395.16;;;19.89;41.84
77288;BME280;66345;42.694;23.346;2023-10-19T10:43:58;95389.81;;;19.56;42.00
77288;BME280;66345;42.694;23.346;2023-10-19T10:46:28;95388.34;;;18.52;45.70
77288;BME280;66345;42.694;23.346;2023-10-19T10:48:57;95383.41;;;17.92;46.70
77288;BME280;66345;42.694;23.346;2023-10-19T10:51:25;95376.88;;;17.88;47.21
77288;BME280;66345;42.694;23.346;2023-10-19T10:53:53;95374.34;;;17.35;48.66
77288;BME280;66345;42.694;23.346;2023-10-19T10:56:21;95376.06;;;17.06;49.83
77288;BME280;66345;42.694;23.346;2023-10-19T10:58:47;95373.06;;;17.02;50.26
77288;BME280;66345;42.694;23.346;2023-10-19T11:01:13;95379.53;;;16.71;51.31
77288;BME280;66345;42.694;23.346;2023-10-19T11:03:40;95366.25;;;16.76;51.26
77288;BME280;66345;42.694;23.346;2023-10-19T11:06:09;95348.22;;;16.95;51.41
77288;BME280;66345;42.694;23.346;2023-10-19T11:08:35;95345.31;;;17.20;50.49
77288;BME280;66345;42.694;23.346;2023-10-19T11:11:10;95344.34;;;16.91;51.30
77288;BME280;66345;42.694;23.346;2023-10-19T11:13:37;95336.31;;;16.79;51.87
77288;BME280;66345;42.694;23.346;2023-10-19T11:16:05;95333.28;;;16.99;51.21
77288;BME280;66345;42.694;23.346;2023-10-19T11:20:59;95333.72;;;16.31;53.17
77288;BME280;66345;42.694;23.346;2023-10-19T11:23:39;95328.66;;;16.53;52.79
77288;BME280;66345;42.694;23.346;2023-10-19T11:26:05;95325.97;;;16.41;53.30
77288;BME280;66345;42.694;23.346;2023-10-19T11:28:31;95316.56;;;16.62;52.98
77288;BME280;66345;42.694;23.346;2023-10-19T11:31:18;95311.72;;;16.82;52.51
77288;BME280;66345;42.694;23.346;2023-10-19T11:33:45;95309.88;;;16.71;52.67
77288;BME280;66345;42.694;23.346;2023-10-19T11:36:12;95301.13;;;16.87;52.20
77288;BME280;66345;42.694;23.346;2023-10-19T11:38:42;95302.19;;;16.86;51.88
77288;BME280;66345;42.694;23.346;2023-10-19T11:41:08;95302.63;;;16.72;52.82
77288;BME280;66345;42.694;23.346;2023-10-19T11:43:35;95288.66;;;16.81;52.37
77288;BME280;66345;42.694;23.346;2023-10-19T11:46:01;95283.78;;;16.78;53.00
77288;BME280;66345;42.694;23.346;2023-10-19T11:48:26;95289.56;;;16.63;53.40
77288;BME280;66345;42.694;23.346;2023-10-19T11:50:51;95286.38;;;16.55;53.44
77288;BME280;66345;42.694;23.346;2023-10-19T11:53:18;95279.38;;;16.54;53.28
77288;BME280;66345;42.694;23.346;2023-10-19T11:55:44;95283.41;;;16.75;53.38
77288;BME280;66345;42.694;23.346;2023-10-19T11:58:10;95274.69;;;16.79;52.90
77288;BME280;66345;42.694;23.346;2023-10-19T12:00:39;95285.63;;;16.78;53.34
77288;BME280;66345;42.694;23.346;2023-10-19T12:03:04;95276.09;;;16.94;52.68
77288;BME280;66345;42.694;23.346;2023-10-19T12:05:31;95280.25;;;17.13;52.16
77288;BME280;66345;42.694;23.346;2023-10-19T12:07:57;95280.38;;;17.18;51.71
77288;BME280;66345;42.694;23.346;2023-10-19T12:10:22;95269.66;;;17.06;52.05
77288;BME280;66345;42.694;23.346;2023-10-19T12:12:58;95270.00;;;17.10;51.82
77288;BME280;66345;42.694;23.346;2023-10-19T12:15:23;95267.78;;;17.18;51.67
77288;BME280;66345;42.694;23.346;2023-10-19T12:17:50;95263.59;;;17.11;51.54
77288;BME280;66345;42.694;23.346;2023-10-19T12:20:16;95252.63;;;17.24;51.38
77288;BME280;66345;42.694;23.346;2023-10-19T12:22:41;95256.56;;;17.22;51.46
77288;BME280;66345;42.694;23.346;2023-10-19T12:25:07;95253.41;;;17.36;50.76
77288;BME280;66345;42.694;23.346;2023-10-19T12:27:33;95249.81;;;17.31;51.30
77288;BME280;66345;42.694;23.346;2023-10-19T12:29:59;95249.91;;;17.36;50.99
77288;BME280;66345;42.694;23.346;2023-10-19T12:32:25;95247.56;;;17.39;50.81
77288;BME280;66345;42.694;23.346;2023-10-19T12:34:51;95239.16;;;17.47;50.64
77288;BME280;66345;42.694;23.346;2023-10-19T12:37:23;95241.22;;;17.57;50.11
77288;BME280;66345;42.694;23.346;2023-10-19T12:39:49;95247.56;;;17.39;50.40
77288;BME280;66345;42.694;23.346;2023-10-19T12:42:18;95239.66;;;17.33;50.66
77288;BME280;66345;42.694;23.346;2023-10-19T12:44:43;95235.31;;;17.43;50.24
77288;BME280;66345;42.694;23.346;2023-10-19T12:47:09;95228.28;;;17.54;50.43
77288;BME280;66345;42.694;23.346;2023-10-19T12:49:38;95229.78;;;17.62;49.68
77288;BME280;66345;42.694;23.346;2023-10-19T12:52:04;95221.94;;;17.60;50.09
77288;BME280;66345;42.694;23.346;2023-10-19T12:54:33;95227.22;;;17.55;50.10
77288;BME280;66345;42.694;23.346;2023-10-19T12:57:00;95216.00;;;17.58;50.54
77288;BME280;66345;42.694;23.346;2023-10-19T12:59:25;95210.41;;;17.71;49.53
77288;BME280;66345;42.694;23.346;2023-10-19T13:01:51;95219.72;;;17.69;49.81
77288;BME280;66345;42.694;23.346;2023-10-19T13:04:20;95220.88;;;17.73;50.17
77288;BME280;66345;42.694;23.346;2023-10-19T13:06:50;95217.25;;;17.79;50.03
77288;BME280;66345;42.694;23.346;2023-10-19T13:09:17;95209.59;;;17.59;49.93
77288;BME280;66345;42.694;23.346;2023-10-19T13:11:47;95205.84;;;17.60;49.66
77288;BME280;66345;42.694;23.346;2023-10-19T13:14:17;95196.16;;;17.59;49.54
77288;BME280;66345;42.694;23.346;2023-10-19T13:16:43;95198.25;;;17.69;49.60